createdAt,value
2024-01-04T00:01:51.522Z,84.08
2024-01-04T00:04:18.307Z,84.09
2024-01-04T00:06:45.682Z,83.86
2024-01-04T00:09:13.166Z,83.70
2024-01-04T00:11:40.079Z,84.14
2024-01-04T00:14:10.192Z,83.83
2024-01-04T00:16:37.170Z,83.51
2024-01-04T00:19:04.515Z,83.40
2024-01-04T00:21:31.411Z,83.27
2024-01-04T00:24:02.046Z,83.22
2024-01-04T00:26:28.839Z,82.99
2024-01-04T00:28:55.662Z,82.80
2024-01-04T00:31:22.344Z,82.59
2024-01-04T00:33:49.153Z,82.43
2024-01-04T00:36:18.984Z,82.10
2024-01-04T00:38:45.787Z,82.43
2024-01-04T00:41:12.518Z,82.27
2024-01-04T00:43:39.285Z,82.09
2024-01-04T00:46:06.025Z,81.64
2024-01-04T00:48:32.875Z,81.53
2024-01-04T00:51:02.393Z,81.67
2024-01-04T00:53:29.097Z,81.37
2024-01-04T00:55:55.786Z,81.24
2024-01-04T00:58:24.806Z,80.86
2024-01-04T01:00:56.716Z,81.42
2024-01-04T01:03:23.533Z,81.28
2024-01-04T01:05:53.222Z,80.84
2024-01-04T01:08:22.335Z,80.96
2024-01-04T01:10:51.646Z,80.64
2024-01-04T01:13:21.832Z,80.56
2024-01-04T01:15:51.188Z,80.87
2024-01-04T01:18:18.040Z,81.05
2024-01-04T01:20:47.372Z,81.22
2024-01-04T01:23:14.042Z,80.69
2024-01-04T01:25:43.020Z,80.93
2024-01-04T01:28:09.643Z,80.85
2024-01-04T01:30:38.573Z,80.81
2024-01-04T01:33:05.670Z,80.63
2024-01-04T01:35:32.627Z,80.61
2024-01-04T01:37:59.414Z,80.30
2024-01-04T01:40:28.530Z,80.92
2024-01-04T01:42:55.346Z,80.47
2024-01-04T01:45:25.222Z,80.46
2024-01-04T01:47:52.323Z,80.89
2024-01-04T01:50:21.830Z,80.45
2024-01-04T01:52:51.225Z,80.54
2024-01-04T01:55:18.964Z,80.38
2024-01-04T01:57:45.826Z,80.28
2024-01-04T02:00:15.251Z,79.97
2024-01-04T02:02:49.063Z,80.31
2024-01-04T02:05:18.747Z,80.38
2024-01-04T02:07:46.778Z,80.51
2024-01-04T02:10:15.694Z,80.72
2024-01-04T02:12:42.439Z,80.34
2024-01-04T02:15:09.509Z,80.06
2024-01-04T02:17:36.884Z,80.54
2024-01-04T02:20:03.962Z,79.76
2024-01-04T02:22:33.029Z,79.98
2024-01-04T02:24:59.687Z,80.43
2024-01-04T02:27:26.435Z,79.95
2024-01-04T02:29:55.328Z,80.53
2024-01-04T02:32:21.976Z,80.48
2024-01-04T02:34:50.861Z,80.51
2024-01-04T02:37:17.591Z,80.36
2024-01-04T02:39:44.226Z,80.17
2024-01-04T02:42:10.983Z,80.16
2024-01-04T02:44:37.741Z,80.24
2024-01-04T02:47:07.638Z,80.40
2024-01-04T02:49:34.447Z,80.51
2024-01-04T02:52:03.456Z,80.45
2024-01-04T02:54:30.176Z,80.13
2024-01-04T02:56:57.011Z,79.94
2024-01-04T02:59:23.933Z,80.17
2024-01-04T03:01:50.686Z,80.35
2024-01-04T03:04:17.556Z,80.13
2024-01-04T03:06:49.133Z,80.16
2024-01-04T03:09:15.988Z,80.21
2024-01-04T03:11:42.757Z,79.81
2024-01-04T03:14:09.580Z,80.04
2024-01-04T03:16:36.253Z,79.75
2024-01-04T03:19:05.545Z,79.75
2024-01-04T03:21:32.338Z,80.00
2024-01-04T03:24:01.521Z,79.66
2024-01-04T03:26:28.266Z,79.95
2024-01-04T03:28:55.202Z,79.78
2024-01-04T03:31:21.894Z,79.94
2024-01-04T03:33:51.187Z,80.01
2024-01-04T03:36:18.339Z,79.70
2024-01-04T03:38:47.653Z,80.21
2024-01-04T03:41:14.548Z,80.24
2024-01-04T03:43:41.214Z,79.85
2024-01-04T03:46:10.237Z,80.03
2024-01-04T03:48:37.286Z,80.13
2024-01-04T03:51:04.505Z,80.02
2024-01-04T03:53:31.209Z,80.36
2024-01-04T03:56:00.320Z,80.21
2024-01-04T03:58:27.672Z,80.28
2024-01-04T04:00:57.166Z,79.84
2024-01-04T04:03:23.965Z,80.58
2024-01-04T04:05:51.253Z,80.35
2024-01-04T04:08:17.928Z,80.48
2024-01-04T04:10:45.378Z,80.57
2024-01-04T04:13:12.150Z,80.64
2024-01-04T04:15:38.783Z,80.13
2024-01-04T04:18:05.809Z,80.29
2024-01-04T04:20:34.858Z,79.77
2024-01-04T04:23:03.861Z,80.43
2024-01-04T04:25:30.529Z,80.68
2024-01-04T04:27:57.239Z,80.88
2024-01-04T04:30:24.530Z,80.71
2024-01-04T04:32:51.655Z,80.77
2024-01-04T04:35:20.473Z,80.66
2024-01-04T04:37:49.631Z,80.56
2024-01-04T04:40:16.459Z,80.52
2024-01-04T04:42:43.188Z,80.07
2024-01-04T04:45:10.210Z,80.30
2024-01-04T04:47:37.239Z,80.51
2024-01-04T04:50:06.788Z,80.58
2024-01-04T04:52:33.408Z,80.50
2024-01-04T04:55:02.464Z,81.04
2024-01-04T04:57:29.278Z,81.11
2024-01-04T04:59:56.001Z,81.07
2024-01-04T05:02:22.757Z,81.16
2024-01-04T05:04:51.605Z,81.44
2024-01-04T05:07:20.295Z,81.36
2024-01-04T05:09:46.984Z,81.49
2024-01-04T05:12:13.790Z,81.58
2024-01-04T05:14:40.482Z,81.21
2024-01-04T05:17:07.242Z,81.29
2024-01-04T05:19:34.041Z,80.82
2024-01-04T05:22:04.571Z,81.27
2024-01-04T05:24:31.446Z,81.65
2024-01-04T05:27:03.028Z,82.09
2024-01-04T05:29:29.659Z,81.98
2024-01-04T05:31:56.594Z,81.77
2024-01-04T05:34:23.522Z,81.69
2024-01-04T05:36:52.796Z,81.59
2024-01-04T05:39:19.582Z,81.72
2024-01-04T05:41:46.307Z,81.66
2024-01-04T05:44:13.080Z,82.00
2024-01-04T05:46:39.805Z,82.09
2024-01-04T05:49:08.798Z,82.04
2024-01-04T05:51:42.357Z,81.94
2024-01-04T05:54:10.924Z,82.08
2024-01-04T05:56:38.145Z,82.14
2024-01-04T05:59:04.926Z,82.34
2024-01-04T06:01:34.049Z,82.63
2024-01-04T06:04:00.927Z,82.60
2024-01-04T06:06:27.797Z,82.88
2024-01-04T06:08:54.516Z,82.96
2024-01-04T06:11:21.253Z,83.08
2024-01-04T06:13:47.953Z,83.30
2024-01-04T06:16:14.880Z,82.95
2024-01-04T06:18:41.750Z,82.87
2024-01-04T06:21:08.561Z,83.07
2024-01-04T06:23:35.473Z,82.92
2024-01-04T06:26:02.176Z,82.49
2024-01-04T06:28:28.811Z,82.76
2024-01-04T06:30:58.031Z,82.56
2024-01-04T06:33:24.878Z,82.48
2024-01-04T06:35:51.683Z,82.56
2024-01-04T06:38:20.849Z,82.21
2024-01-04T06:40:49.613Z,82.43
2024-01-04T06:43:18.508Z,82.00
2024-01-04T06:45:45.305Z,82.06
2024-01-04T06:48:12.240Z,81.52
2024-01-04T06:50:39.119Z,81.88
2024-01-04T06:53:05.988Z,81.76
2024-01-04T06:55:32.634Z,81.69
2024-01-04T06:57:59.434Z,81.96
2024-01-04T07:00:26.710Z,81.24
2024-01-04T07:02:55.792Z,81.47
2024-01-04T07:05:24.927Z,81.39
2024-01-04T07:07:51.613Z,81.44
2024-01-04T07:10:20.534Z,81.26
2024-01-04T07:12:49.698Z,81.49
2024-01-04T07:15:16.411Z,81.61
2024-01-04T07:17:43.415Z,81.17
2024-01-04T07:20:10.587Z,81.51
2024-01-04T07:22:37.380Z,81.23
2024-01-04T07:25:04.393Z,81.26
2024-01-04T07:27:31.215Z,81.24
2024-01-04T07:30:00.664Z,81.13
2024-01-04T07:32:28.980Z,81.27
2024-01-04T07:35:07.687Z,81.63
2024-01-04T07:37:41.861Z,81.05
2024-01-04T07:40:13.893Z,81.39
2024-01-04T07:42:40.923Z,81.62
2024-01-04T07:45:08.954Z,81.30
2024-01-04T07:47:41.749Z,81.69
2024-01-04T07:50:13.406Z,82.04
2024-01-04T07:52:40.205Z,81.30
2024-01-04T07:55:07.930Z,81.40
2024-01-04T07:57:34.824Z,81.79
2024-01-04T08:00:01.598Z,81.48
2024-01-04T08:02:34.368Z,81.90
2024-01-04T08:05:01.206Z,81.80
2024-01-04T08:07:27.957Z,82.32
2024-01-04T08:09:56.937Z,82.45
2024-01-04T08:12:23.767Z,82.57
2024-01-04T08:14:50.582Z,83.13
2024-01-04T08:17:17.260Z,82.40
2024-01-04T08:19:44.059Z,82.50
2024-01-04T08:22:10.756Z,82.08
2024-01-04T08:24:41.713Z,82.58
2024-01-04T08:27:11.088Z,82.24
2024-01-04T08:29:37.982Z,82.61
2024-01-04T08:32:07.324Z,82.40
2024-01-04T08:34:36.289Z,82.59
2024-01-04T08:37:06.038Z,82.68
2024-01-04T08:39:33.213Z,82.82
2024-01-04T08:41:59.895Z,82.57
2024-01-04T08:44:26.806Z,82.83
2024-01-04T08:46:54.562Z,82.87
2024-01-04T08:49:21.641Z,82.82
2024-01-04T08:51:52.944Z,82.64
2024-01-04T08:54:19.818Z,82.93
2024-01-04T08:56:46.658Z,83.21
2024-01-04T08:59:13.595Z,83.33
2024-01-04T09:01:43.167Z,83.00
2024-01-04T09:04:10.401Z,83.26
2024-01-04T09:06:38.054Z,83.53
2024-01-04T09:09:08.980Z,83.44
2024-01-04T09:11:42.634Z,83.51
2024-01-04T09:14:13.600Z,83.48
2024-01-04T09:16:46.588Z,83.61
2024-01-04T09:19:17.401Z,83.46
2024-01-04T09:21:47.430Z,82.97
2024-01-04T09:24:15.044Z,83.53
2024-01-04T09:26:45.032Z,83.96
2024-01-04T09:29:13.507Z,83.66
2024-01-04T09:31:43.453Z,83.56
2024-01-04T09:34:10.544Z,84.19
2024-01-04T09:36:37.334Z,84.58
2024-01-04T09:39:08.756Z,84.78
2024-01-04T09:41:46.253Z,85.08
2024-01-04T09:44:14.872Z,84.46
2024-01-04T09:46:43.223Z,83.78
2024-01-04T09:49:12.839Z,84.05
2024-01-04T09:51:43.296Z,84.48
2024-01-04T09:54:11.759Z,84.66
2024-01-04T09:56:43.917Z,84.64
2024-01-04T09:59:11.393Z,84.08
2024-01-04T10:01:39.452Z,84.46
2024-01-04T10:04:15.382Z,84.58
2024-01-04T10:06:46.214Z,84.37
2024-01-04T10:09:18.649Z,84.16
2024-01-04T10:11:53.681Z,84.21
2024-01-04T10:14:22.551Z,84.02
2024-01-04T10:16:51.844Z,84.41
2024-01-04T10:19:18.841Z,83.60
2024-01-04T10:21:47.402Z,83.85
2024-01-04T10:24:17.389Z,84.28
2024-01-04T10:26:54.935Z,84.17
2024-01-04T10:29:27.690Z,84.09
2024-01-04T10:32:09.600Z,84.23
2024-01-04T10:34:38.335Z,84.23
2024-01-04T10:37:19.080Z,84.42
2024-01-04T10:39:58.345Z,83.85
2024-01-04T10:42:25.803Z,83.87
2024-01-04T10:44:53.803Z,84.58
2024-01-04T10:47:21.281Z,84.69
2024-01-04T10:49:50.060Z,83.58
2024-01-04T10:52:19.520Z,84.60
2024-01-04T10:54:46.361Z,84.38
2024-01-04T10:57:14.368Z,84.62
2024-01-04T10:59:45.777Z,84.76
2024-01-04T11:02:15.817Z,85.00
2024-01-04T11:04:43.953Z,84.97
2024-01-04T11:07:10.915Z,85.08
2024-01-04T11:09:37.593Z,85.45
2024-01-04T11:12:06.564Z,85.25
2024-01-04T11:14:33.279Z,84.99
2024-01-04T11:17:09.153Z,85.49
2024-01-04T11:19:41.888Z,85.40
2024-01-04T11:22:14.603Z,85.26
2024-01-04T11:24:49.757Z,85.53
2024-01-04T11:27:18.697Z,85.25
2024-01-04T11:29:47.034Z,85.18
2024-01-04T11:32:13.828Z,84.90
2024-01-04T11:34:40.879Z,84.79
2024-01-04T11:37:22.135Z,84.75
2024-01-04T11:40:08.542Z,84.80
2024-01-04T11:42:42.503Z,84.76
2024-01-04T11:45:16.463Z,84.35
2024-01-04T11:47:46.041Z,84.55
2024-01-04T11:50:30.503Z,84.54
2024-01-04T11:53:07.743Z,84.00
2024-01-04T11:55:39.881Z,83.98
2024-01-04T11:58:12.018Z,84.37
2024-01-04T12:00:43.600Z,83.85
2024-01-04T12:03:14.966Z,84.35
2024-01-04T12:05:45.501Z,84.29
2024-01-04T12:08:27.154Z,83.82
2024-01-04T12:10:57.749Z,84.23
2024-01-04T12:13:25.165Z,84.25
2024-01-04T12:15:55.681Z,84.60
2024-01-04T12:18:26.484Z,84.92
2024-01-04T12:21:03.108Z,85.01
2024-01-04T12:23:37.744Z,85.49
2024-01-04T12:26:05.704Z,85.84
2024-01-04T12:28:35.953Z,86.11
2024-01-04T12:31:05.588Z,86.19
2024-01-04T12:33:33.083Z,86.58
2024-01-04T12:36:01.376Z,87.34
2024-01-04T12:38:29.633Z,87.27
2024-01-04T12:40:57.220Z,87.63
2024-01-04T12:43:25.710Z,87.72
2024-01-04T12:46:10.126Z,89.00
2024-01-04T12:48:42.094Z,88.55
2024-01-04T12:51:15.998Z,89.16
2024-01-04T12:53:47.397Z,89.34
2024-01-04T12:56:17.163Z,89.29
2024-01-04T12:58:45.873Z,89.94
2024-01-04T13:01:13.292Z,89.83
2024-01-04T13:03:44.478Z,90.45
2024-01-04T13:06:11.721Z,90.86
2024-01-04T13:08:38.516Z,90.72
2024-01-04T13:11:05.284Z,91.69
2024-01-04T13:13:33.488Z,91.53
2024-01-04T13:16:01.819Z,91.87
2024-01-04T13:18:28.938Z,92.33
2024-01-04T13:20:55.916Z,92.39
2024-01-04T13:23:23.287Z,92.37
2024-01-04T13:25:50.271Z,93.03
2024-01-04T13:28:19.999Z,93.20
2024-01-04T13:30:49.007Z,93.74
2024-01-04T13:33:15.916Z,94.50
2024-01-04T13:35:42.705Z,94.04
2024-01-04T13:38:11.695Z,94.88
2024-01-04T13:40:40.627Z,94.80
2024-01-04T13:43:09.729Z,96.08
2024-01-04T13:45:38.715Z,95.54
2024-01-04T13:48:05.684Z,95.73
2024-01-04T13:50:34.703Z,95.87
2024-01-04T13:53:03.652Z,96.02
2024-01-04T13:55:32.542Z,95.84
2024-01-04T13:57:59.204Z,96.50
2024-01-04T14:00:26.573Z,96.58
2024-01-04T14:02:53.511Z,96.55
2024-01-04T14:05:22.764Z,96.16
2024-01-04T14:07:49.607Z,96.65
2024-01-04T14:10:16.283Z,96.98
2024-01-04T14:12:47.777Z,97.30
2024-01-04T14:15:16.953Z,97.49
2024-01-04T14:17:43.755Z,97.87
2024-01-04T14:20:11.580Z,97.77
2024-01-04T14:22:38.389Z,97.78
2024-01-04T14:25:05.360Z,98.10
2024-01-04T14:27:34.141Z,98.91
2024-01-04T14:30:01.952Z,99.68
2024-01-04T14:32:33.237Z,99.86
2024-01-04T14:35:06.062Z,99.62
2024-01-04T14:37:36.710Z,99.52
2024-01-04T14:40:03.627Z,99.50
2024-01-04T14:42:34.146Z,99.81
2024-01-04T14:45:01.768Z,100.00
2024-01-04T14:47:31.475Z,100.00
2024-01-04T14:50:01.097Z,100.00
2024-01-04T14:52:30.511Z,100.00
2024-01-04T14:54:57.191Z,100.00
2024-01-04T14:57:24.616Z,100.00
2024-01-04T14:59:54.350Z,100.00
2024-01-04T15:02:23.979Z,100.00
2024-01-04T15:04:50.784Z,100.00
2024-01-04T15:07:17.586Z,100.00
2024-01-04T15:09:44.420Z,100.00
2024-01-04T15:12:11.509Z,100.00
2024-01-04T15:14:39.041Z,100.00
2024-01-04T15:17:05.752Z,100.00
2024-01-04T15:19:32.609Z,100.00
2024-01-04T15:21:59.377Z,100.00
2024-01-04T15:24:27.425Z,100.00
2024-01-04T15:26:54.298Z,100.00
2024-01-04T15:29:21.390Z,100.00
2024-01-04T15:31:48.662Z,100.00
2024-01-04T15:34:17.937Z,100.00
2024-01-04T15:36:45.569Z,100.00
2024-01-04T15:39:12.978Z,100.00
2024-01-04T15:41:39.686Z,100.00
2024-01-04T15:44:06.625Z,100.00
2024-01-04T15:46:38.868Z,100.00
2024-01-04T15:49:07.871Z,100.00
2024-01-04T15:51:34.873Z,100.00
2024-01-04T15:54:01.577Z,100.00
2024-01-04T15:56:32.567Z,100.00
2024-01-04T15:58:59.679Z,100.00
2024-01-04T16:01:26.625Z,100.00
2024-01-04T16:03:55.683Z,100.00
2024-01-04T16:06:23.616Z,100.00
2024-01-04T16:08:50.678Z,100.00
2024-01-04T16:11:19.954Z,100.00
2024-01-04T16:13:47.799Z,100.00
2024-01-04T16:16:15.742Z,100.00
2024-01-04T16:18:47.262Z,100.00
2024-01-04T16:21:16.361Z,100.00
2024-01-04T16:23:43.511Z,100.00
2024-01-04T16:26:13.048Z,100.00
2024-01-04T16:28:41.502Z,100.00
2024-01-04T16:31:08.758Z,100.00
2024-01-04T16:33:40.365Z,100.00
2024-01-04T16:36:10.499Z,100.00
2024-01-04T16:38:38.178Z,100.00
2024-01-04T16:41:12.338Z,100.00
2024-01-04T16:43:42.400Z,100.00
2024-01-04T16:46:09.656Z,100.00
2024-01-04T16:48:36.671Z,100.00
2024-01-04T16:51:05.599Z,100.00
2024-01-04T16:53:32.475Z,100.00
2024-01-04T16:55:59.427Z,100.00
2024-01-04T16:58:28.578Z,100.00
2024-01-04T17:00:55.626Z,100.00
2024-01-04T17:03:22.574Z,100.00
2024-01-04T17:05:52.762Z,100.00
2024-01-04T17:08:22.079Z,100.00
2024-01-04T17:10:51.113Z,100.00
2024-01-04T17:13:17.812Z,100.00
2024-01-04T17:15:44.928Z,100.00
2024-01-04T17:18:11.809Z,100.00
2024-01-04T17:20:38.697Z,100.00
2024-01-04T17:23:05.561Z,100.00
2024-01-04T17:25:32.291Z,100.00
2024-01-04T17:28:01.474Z,100.00
2024-01-04T17:30:28.281Z,100.00
2024-01-04T17:32:57.561Z,100.00
2024-01-04T17:35:24.463Z,100.00
2024-01-04T17:37:51.158Z,100.00
2024-01-04T17:40:20.590Z,100.00
2024-01-04T17:42:47.577Z,100.00
2024-01-04T17:45:16.870Z,100.00
2024-01-04T17:47:47.047Z,100.00
2024-01-04T17:50:13.925Z,100.00
2024-01-04T17:52:40.642Z,100.00
2024-01-04T17:55:09.310Z,100.00
2024-01-04T17:57:36.005Z,100.00
2024-01-04T18:00:02.939Z,100.00
2024-01-04T18:02:30.187Z,100.00
2024-01-04T18:04:56.931Z,100.00
2024-01-04T18:07:23.566Z,100.00
2024-01-04T18:09:50.325Z,100.00
2024-01-04T18:12:17.177Z,100.00
2024-01-04T18:14:44.100Z,100.00
2024-01-04T18:17:11.206Z,100.00
2024-01-04T18:19:40.533Z,100.00
2024-01-04T18:22:07.238Z,100.00
2024-01-04T18:24:33.973Z,100.00
2024-01-04T18:27:00.781Z,100.00
2024-01-04T18:29:27.717Z,100.00
2024-01-04T18:31:54.444Z,100.00
2024-01-04T18:34:23.425Z,100.00
2024-01-04T18:36:50.607Z,100.00
2024-01-04T18:39:20.945Z,100.00
2024-01-04T18:41:50.117Z,100.00
2024-01-04T18:44:20.491Z,100.00
2024-01-04T18:46:47.566Z,100.00
2024-01-04T18:49:14.414Z,100.00
2024-01-04T18:51:41.644Z,100.00
2024-01-04T18:54:08.640Z,100.00
2024-01-04T18:56:35.497Z,100.00
2024-01-04T18:59:07.635Z,100.00
2024-01-04T19:01:34.280Z,100.00
2024-01-04T19:04:01.032Z,100.00
2024-01-04T19:06:28.598Z,100.00
2024-01-04T19:08:55.378Z,100.00
2024-01-04T19:11:22.151Z,100.00
2024-01-04T19:13:49.030Z,100.00
2024-01-04T19:16:18.176Z,100.00
2024-01-04T19:18:50.959Z,100.00
2024-01-04T19:21:18.954Z,100.00
2024-01-04T19:23:47.951Z,100.00
2024-01-04T19:26:14.756Z,100.00
2024-01-04T19:28:41.433Z,100.00
2024-01-04T19:31:08.290Z,100.00
2024-01-04T19:33:35.343Z,100.00
2024-01-04T19:36:03.431Z,100.00
2024-01-04T19:38:30.173Z,100.00
2024-01-04T19:40:56.955Z,100.00
2024-01-04T19:43:23.786Z,100.00
2024-01-04T19:45:54.287Z,100.00
2024-01-04T19:48:24.740Z,100.00
2024-01-04T19:50:53.975Z,100.00
2024-01-04T19:53:20.870Z,100.00
2024-01-04T19:55:47.739Z,100.00
2024-01-04T19:58:16.608Z,99.77
2024-01-04T20:00:46.386Z,100.00
2024-01-04T20:03:13.244Z,99.91
2024-01-04T20:05:40.139Z,99.94
2024-01-04T20:08:06.901Z,100.00
2024-01-04T20:10:33.756Z,100.00
2024-01-04T20:13:02.672Z,100.00
2024-01-04T20:15:34.264Z,100.00
2024-01-04T20:18:01.124Z,100.00
2024-01-04T20:20:35.332Z,100.00
2024-01-04T20:23:02.002Z,99.85
2024-01-04T20:25:31.378Z,100.00
2024-01-04T20:27:58.124Z,100.00
2024-01-04T20:30:25.207Z,100.00
2024-01-04T20:32:52.466Z,99.93
2024-01-04T20:35:19.295Z,100.00
2024-01-04T20:37:49.080Z,100.00
2024-01-04T20:40:18.523Z,100.00
2024-01-04T20:42:48.912Z,100.00
2024-01-04T20:45:18.386Z,100.00
2024-01-04T20:47:45.169Z,99.98
2024-01-04T20:50:12.337Z,100.00
2024-01-04T20:52:39.099Z,99.91
2024-01-04T20:55:07.310Z,100.00
2024-01-04T20:57:35.387Z,99.96
2024-01-04T21:00:02.317Z,99.90
2024-01-04T21:02:29.004Z,99.80
2024-01-04T21:04:55.822Z,99.32
2024-01-04T21:07:22.676Z,99.67
2024-01-04T21:09:49.371Z,99.41
2024-01-04T21:12:18.447Z,99.29
2024-01-04T21:14:46.420Z,98.12
2024-01-04T21:17:13.240Z,97.14
2024-01-04T21:19:42.505Z,95.45
2024-01-04T21:22:19.340Z,95.36
2024-01-04T21:24:48.350Z,95.51
2024-01-04T21:27:17.546Z,95.32
2024-01-04T21:29:46.812Z,95.26
2024-01-04T21:32:18.551Z,95.15
2024-01-04T21:34:45.281Z,95.47
2024-01-04T21:37:12.044Z,94.25
2024-01-04T21:39:38.792Z,93.80
2024-01-04T21:42:05.889Z,94.25
2024-01-04T21:44:32.658Z,94.77
2024-01-04T21:46:59.361Z,93.54
2024-01-04T21:49:30.960Z,93.63
2024-01-04T21:51:57.908Z,93.68
2024-01-04T21:54:24.674Z,93.97
2024-01-04T21:56:51.375Z,94.83
2024-01-04T21:59:18.072Z,94.49
2024-01-04T22:01:46.984Z,94.38
2024-01-04T22:04:13.768Z,94.77
2024-01-04T22:06:43.081Z,94.39
2024-01-04T22:09:10.216Z,95.03
2024-01-04T22:11:44.054Z,94.47
2024-01-04T22:14:11.038Z,94.30
2024-01-04T22:16:40.003Z,93.94
2024-01-04T22:19:11.261Z,93.56
2024-01-04T22:21:41.020Z,94.56
2024-01-04T22:24:08.321Z,93.41
2024-01-04T22:26:35.144Z,93.72
2024-01-04T22:29:02.027Z,92.97
2024-01-04T22:31:29.066Z,93.92
2024-01-04T22:33:58.491Z,93.29
2024-01-04T22:36:25.262Z,92.51
2024-01-04T22:38:51.968Z,91.61
2024-01-04T22:41:18.939Z,91.83
2024-01-04T22:43:48.641Z,92.67
2024-01-04T22:46:15.924Z,92.25
2024-01-04T22:48:42.815Z,92.76
2024-01-04T22:51:11.977Z,92.36
2024-01-04T22:53:38.684Z,92.11
2024-01-04T22:56:05.964Z,93.32
2024-01-04T22:58:35.758Z,93.62
2024-01-04T23:01:02.525Z,93.58
2024-01-04T23:03:29.330Z,93.24
2024-01-04T23:05:56.829Z,93.33
2024-01-04T23:08:23.518Z,94.04
2024-01-04T23:10:53.012Z,93.47
2024-01-04T23:13:19.666Z,93.49
2024-01-04T23:15:46.350Z,93.49
2024-01-04T23:18:13.481Z,93.81
2024-01-04T23:20:40.237Z,93.54
2024-01-04T23:23:07.151Z,93.73
2024-01-04T23:25:36.736Z,93.97
2024-01-04T23:28:03.762Z,94.13
2024-01-04T23:30:34.378Z,94.21
2024-01-04T23:33:01.936Z,95.24
2024-01-04T23:35:28.889Z,95.25
2024-01-04T23:37:55.574Z,95.12
2024-01-04T23:40:22.309Z,95.24
2024-01-04T23:42:49.064Z,95.10
2024-01-04T23:45:15.937Z,96.04
2024-01-04T23:47:42.823Z,95.96
2024-01-04T23:50:09.807Z,95.75
2024-01-04T23:52:36.540Z,94.55
2024-01-04T23:55:03.393Z,95.68
2024-01-04T23:57:30.360Z,95.41
2024-01-04T23:59:57.285Z,95.83
